Time;durP1;ratioP1;P1;durP2;ratioP2;P2;SDS_P1;SDS_P2;PMS_P1;PMS_P2;Temp;Humidity;BMP_temperature;BMP_pressure;BME280_temperature;BME280_humidity;BME280_pressure;Samples;Min_cycle;Max_cycle;Signal;HPM_P1;HPM_P2
2021/08/12 00:00:07;;;;;;;7.20;5.85;;;28.80;66.50;;;;;;5008537;28;20045;-66
2021/08/12 00:02:32;;;;;;;7.60;6.07;;;28.70;66.30;;;;;;5023293;28;20124;-65
2021/08/12 00:04:58;;;;;;;8.43;6.30;;;28.80;66.50;;;;;;5028234;28;20116;-66
2021/08/12 00:07:23;;;;;;;8.48;6.50;;;28.60;66.10;;;;;;5006662;28;20053;-67
2021/08/12 00:09:49;;;;;;;6.82;6.22;;;28.60;66.40;;;;;;5028054;28;20033;-66
2021/08/12 00:12:15;;;;;;;9.13;6.47;;;28.60;66.80;;;;;;5023116;28;20136;-66
2021/08/12 00:14:41;;;;;;;9.00;6.18;;;28.60;66.70;;;;;;5010335;28;20045;-67
2021/08/12 00:17:06;;;;;;;15.90;7.20;;;28.50;66.90;;;;;;5002850;28;20048;-67
2021/08/12 00:19:32;;;;;;;7.82;6.35;;;28.50;66.80;;;;;;5024760;28;20494;-66
2021/08/12 00:21:58;;;;;;;6.30;5.68;;;28.50;66.50;;;;;;5022698;28;20172;-67
2021/08/12 00:24:23;;;;;;;8.63;5.93;;;28.50;66.90;;;;;;5027357;28;20471;-68
2021/08/12 00:26:49;;;;;;;9.43;6.13;;;28.50;66.70;;;;;;5024382;28;20112;-67
2021/08/12 00:29:15;;;;;;;9.85;6.32;;;28.40;67.20;;;;;;5019280;28;20506;-67
2021/08/12 00:31:41;;;;;;;9.43;6.88;;;28.40;67.90;;;;;;5017850;28;20033;-67
2021/08/12 00:34:06;;;;;;;11.80;7.30;;;28.30;67.90;;;;;;5003576;28;20045;-67
2021/08/12 00:36:32;;;;;;;8.88;6.78;;;28.30;67.60;;;;;;5019775;28;20034;-66
2021/08/12 00:38:58;;;;;;;13.68;6.43;;;28.30;67.60;;;;;;5014494;28;20037;-67
2021/08/12 00:41:23;;;;;;;7.03;6.40;;;28.30;67.80;;;;;;5017785;28;20111;-67
2021/08/12 00:43:49;;;;;;;9.77;6.13;;;28.30;67.40;;;;;;5021878;28;20550;-67
2021/08/12 00:46:15;;;;;;;8.25;6.13;;;28.30;67.40;;;;;;5027085;28;20037;-67
2021/08/12 00:48:40;;;;;;;7.38;5.95;;;28.30;67.30;;;;;;5022167;28;20029;-66
2021/08/12 00:51:06;;;;;;;8.80;6.15;;;28.20;67.30;;;;;;5008617;28;20053;-66
2021/08/12 00:53:33;;;;;;;7.05;5.93;;;28.10;67.40;;;;;;5004284;28;20045;-60
2021/08/12 00:55:58;;;;;;;9.85;6.35;;;28.10;66.80;;;;;;5030257;28;20461;-67
2021/08/12 00:58:24;;;;;;;8.60;6.32;;;28.20;66.90;;;;;;4995231;28;20125;-67
2021/08/12 01:00:50;;;;;;;9.23;6.13;;;28.10;66.60;;;;;;5008463;28;20084;-67
2021/08/12 01:03:19;;;;;;;7.28;5.47;;;28.10;67.20;;;;;;5002141;28;20132;-67
2021/08/12 01:05:51;;;;;;;7.47;5.72;;;28.10;67.50;;;;;;5004418;28;20042;-67
2021/08/12 01:08:54;;;;;;;7.20;5.85;;;28.10;68.40;;;;;;5003337;28;20041;-67
2021/08/12 01:11:48;;;;;;;8.38;5.78;;;28.10;70.60;;;;;;4992872;28;20076;-67
2021/08/12 01:14:27;;;;;;;8.75;6.43;;;28.00;69.30;;;;;;4983482;28;20030;-67
2021/08/12 01:17:21;;;;;;;7.05;6.07;;;27.90;68.40;;;;;;5028897;28;20037;-67
2021/08/12 01:20:00;;;;;;;7.80;6.10;;;27.90;69.70;;;;;;4998822;28;20040;-67
2021/08/12 01:22:27;;;;;;;8.43;6.50;;;27.80;69.30;;;;;;5029245;28;20037;-67
2021/08/12 01:24:59;;;;;;;6.82;6.10;;;27.90;69.40;;;;;;5027097;28;20072;-67
2021/08/12 01:27:31;;;;;;;7.82;5.63;;;27.90;69.00;;;;;;5031168;28;20041;-67
2021/08/12 01:30:07;;;;;;;8.30;5.72;;;27.80;69.40;;;;;;5021613;28;20057;-67
2021/08/12 01:32:54;;;;;;;7.00;6.30;;;27.90;70.70;;;;;;5020837;28;20480;-66
2021/08/12 01:35:21;;;;;;;8.35;6.00;;;27.80;69.90;;;;;;5024474;28;20036;-67
2021/08/12 01:38:23;;;;;;;5.60;5.00;;;27.90;69.30;;;;;;5014886;28;20044;-67
2021/08/12 01:40:51;;;;;;;6.78;5.72;;;27.80;68.50;;;;;;4980821;28;20407;-67
2021/08/12 01:43:18;;;;;;;11.02;5.90;;;27.80;68.50;;;;;;5028243;28;20045;-67
2021/08/12 01:45:55;;;;;;;6.53;5.05;;;27.80;68.40;;;;;;5010278;28;20041;-67
2021/08/12 01:48:24;;;;;;;7.32;5.38;;;27.80;68.10;;;;;;5012453;28;20183;-67
2021/08/12 01:50:52;;;;;;;6.10;5.50;;;27.80;68.00;;;;;;5008624;28;20121;-67
2021/08/12 01:53:19;;;;;;;6.00;5.50;;;27.80;68.00;;;;;;5011531;28;20033;-67
2021/08/12 01:55:45;;;;;;;9.35;5.43;;;27.80;67.90;;;;;;4995646;28;20038;-67
2021/08/12 01:58:12;;;;;;;9.27;5.93;;;27.70;68.20;;;;;;5030999;28;20044;-67
2021/08/12 02:00:38;;;;;;;7.32;5.53;;;27.70;68.10;;;;;;5023730;28;20033;-67
2021/08/12 02:03:05;;;;;;;5.82;5.30;;;27.70;67.90;;;;;;5029438;28;20041;-66
2021/08/12 02:05:32;;;;;;;6.13;5.07;;;27.60;68.50;;;;;;5030554;28;20041;-67
2021/08/12 02:07:58;;;;;;;9.13;5.55;;;27.60;68.40;;;;;;5027214;28;20120;-67
2021/08/12 02:10:24;;;;;;;6.45;5.57;;;27.50;68.50;;;;;;5029836;28;20037;-67
2021/08/12 02:12:49;;;;;;;5.72;5.07;;;27.40;68.80;;;;;;5024721;28;20040;-67
2021/08/12 02:15:15;;;;;;;7.47;5.93;;;27.50;68.70;;;;;;5020357;28;20044;-67
2021/08/12 02:17:41;;;;;;;6.95;5.60;;;27.50;69.10;;;;;;5015988;28;20046;-67
2021/08/12 02:20:10;;;;;;;8.00;5.18;;;27.50;69.00;;;;;;5028591;28;20482;-67
2021/08/12 02:22:46;;;;;;;9.65;5.72;;;27.40;69.10;;;;;;5023900;28;20064;-67
2021/08/12 02:25:17;;;;;;;6.00;4.93;;;27.50;68.80;;;;;;5029966;28;20402;-67
2021/08/12 02:27:45;;;;;;;7.13;5.53;;;27.30;69.10;;;;;;5026519;28;20065;-67
2021/08/12 02:30:11;;;;;;;6.25;5.53;;;27.40;68.90;;;;;;5027755;28;20034;-67
2021/08/12 02:32:38;;;;;;;6.47;5.13;;;27.50;68.70;;;;;;5027504;28;20049;-67
2021/08/12 02:35:06;;;;;;;6.35;5.40;;;27.40;68.90;;;;;;5014806;28;20034;-67
2021/08/12 02:37:34;;;;;;;9.02;5.55;;;27.40;69.40;;;;;;5008442;28;20038;-62
2021/08/12 02:40:02;;;;;;;7.00;5.65;;;27.40;68.80;;;;;;5001662;28;20034;-67
2021/08/12 02:42:27;;;;;;;5.85;5.28;;;27.40;69.10;;;;;;5018511;28;20116;-67
2021/08/12 02:44:54;;;;;;;5.80;5.20;;;27.30;68.80;;;;;;5027087;28;20419;-67
2021/08/12 02:47:21;;;;;;;5.97;5.15;;;27.30;68.90;;;;;;5008668;28;20045;-67
2021/08/12 02:49:51;;;;;;;5.75;5.10;;;27.20;69.30;;;;;;5024067;28;20025;-67
2021/08/12 02:52:18;;;;;;;5.72;5.13;;;27.30;70.10;;;;;;5028404;28;20495;-67
2021/08/12 02:54:46;;;;;;;7.38;5.88;;;27.20;69.50;;;;;;4993243;28;20061;-67
2021/08/12 02:57:12;;;;;;;8.20;4.90;;;27.20;69.80;;;;;;5012202;28;20041;-67
2021/08/12 02:59:41;;;;;;;7.10;4.95;;;27.20;70.10;;;;;;5004018;28;20042;-66
2021/08/12 03:02:08;;;;;;;6.03;5.43;;;27.20;69.80;;;;;;5008353;28;20512;-67
2021/08/12 03:04:33;;;;;;;6.03;5.35;;;27.10;70.60;;;;;;5002528;28;20149;-66
2021/08/12 03:07:00;;;;;;;6.60;4.88;;;27.10;70.70;;;;;;5010895;28;20466;-67
2021/08/12 03:09:27;;;;;;;5.20;4.80;;;27.10;70.70;;;;;;5006193;28;20092;-67
2021/08/12 03:11:55;;;;;;;7.00;5.38;;;27.10;70.30;;;;;;5009829;28;20046;-67
2021/08/12 03:14:21;;;;;;;6.20;5.40;;;27.00;70.50;;;;;;5002672;28;20040;-67
2021/08/12 03:16:47;;;;;;;7.68;5.30;;;27.00;70.50;;;;;;5006285;28;20496;-67
2021/08/12 03:19:18;;;;;;;7.68;5.47;;;27.00;70.60;;;;;;5004966;28;20045;-66
2021/08/12 03:22:06;;;;;;;5.63;4.88;;;27.00;71.10;;;;;;5009513;28;20045;-67
2021/08/12 03:24:58;;;;;;;6.65;5.13;;;27.00;71.50;;;;;;5004400;28;20043;-66
2021/08/12 03:27:23;;;;;;;6.55;5.82;;;27.10;71.90;;;;;;4980605;28;20034;-66
2021/08/12 03:29:51;;;;;;;6.68;5.15;;;27.00;70.80;;;;;;5003045;28;20045;-66
2021/08/12 03:32:20;;;;;;;8.05;5.72;;;26.90;71.00;;;;;;5010280;28;20053;-66
2021/08/12 03:34:46;;;;;;;6.47;5.75;;;26.90;71.30;;;;;;5004291;28;20088;-66
2021/08/12 03:37:13;;;;;;;5.90;5.30;;;27.00;71.00;;;;;;5009646;28;20044;-66
2021/08/12 03:39:39;;;;;;;5.95;5.05;;;26.90;70.90;;;;;;5003039;28;20109;-67
2021/08/12 03:42:05;;;;;;;6.35;5.22;;;26.90;71.40;;;;;;5008702;28;20118;-66
2021/08/12 03:44:30;;;;;;;5.43;4.95;;;27.00;71.40;;;;;;5004500;28;20037;-67
2021/08/12 03:46:56;;;;;;;6.43;5.75;;;26.90;72.00;;;;;;5006938;28;20084;-67
2021/08/12 03:49:22;;;;;;;6.72;5.63;;;26.70;71.80;;;;;;5008956;28;20513;-67
2021/08/12 03:51:47;;;;;;;5.60;5.00;;;26.80;72.10;;;;;;5003826;28;20048;-66
2021/08/12 03:54:13;;;;;;;6.63;5.72;;;26.80;72.20;;;;;;5010555;28;20463;-67
2021/08/12 03:56:38;;;;;;;6.80;5.53;;;26.80;72.20;;;;;;5015414;28;20042;-67
2021/08/12 03:59:05;;;;;;;5.75;5.25;;;26.70;72.70;;;;;;5017644;28;20061;-67
2021/08/12 04:01:31;;;;;;;9.25;5.85;;;26.70;73.00;;;;;;5006989;28;20405;-66
2021/08/12 04:03:57;;;;;;;6.22;5.63;;;26.70;73.10;;;;;;5026530;28;20072;-67
2021/08/12 04:06:22;;;;;;;6.50;5.72;;;26.70;73.60;;;;;;5012890;28;20081;-67
2021/08/12 04:08:48;;;;;;;7.68;6.10;;;26.70;74.20;;;;;;5028009;28;20073;-67
2021/08/12 04:11:13;;;;;;;8.32;6.25;;;26.60;74.50;;;;;;5020515;28;20099;-67
2021/08/12 04:13:39;;;;;;;7.20;6.22;;;26.60;74.80;;;;;;5028231;28;20494;-66
2021/08/12 04:16:05;;;;;;;10.68;6.47;;;26.50;76.00;;;;;;5022375;28;20034;-66
2021/08/12 04:18:30;;;;;;;7.30;6.20;;;26.50;75.90;;;;;;5029649;28;20064;-67
2021/08/12 04:20:56;;;;;;;6.68;5.97;;;26.60;76.50;;;;;;5027146;28;20037;-67
2021/08/12 04:23:22;;;;;;;7.20;6.43;;;26.50;77.00;;;;;;5017196;28;20502;-67
2021/08/12 04:25:48;;;;;;;6.72;6.00;;;26.60;77.40;;;;;;5026869;28;20034;-67
2021/08/12 04:28:13;;;;;;;6.95;6.07;;;26.50;78.20;;;;;;5010135;28;20042;-67
2021/08/12 04:30:39;;;;;;;6.57;5.85;;;26.50;78.30;;;;;;5025587;28;20037;-66
2021/08/12 04:33:05;;;;;;;6.93;6.30;;;26.50;78.40;;;;;;5019679;28;20047;-66
2021/08/12 04:35:30;;;;;;;6.78;6.20;;;26.50;78.00;;;;;;5025442;28;20131;-67
2021/08/12 04:37:56;;;;;;;7.63;6.55;;;26.50;78.80;;;;;;4998341;28;20107;-67
2021/08/12 04:40:22;;;;;;;8.05;6.53;;;26.50;78.70;;;;;;5015576;28;20466;-67
2021/08/12 04:42:49;;;;;;;6.97;6.32;;;26.40;79.00;;;;;;5004821;28;20037;-66
2021/08/12 04:45:17;;;;;;;8.27;6.45;;;26.50;78.80;;;;;;5015521;28;20046;-67
2021/08/12 04:47:42;;;;;;;7.97;6.35;;;26.50;78.80;;;;;;5005186;28;20537;-67
2021/08/12 04:50:10;;;;;;;9.00;6.47;;;26.50;79.00;;;;;;5009406;28;20029;-66
2021/08/12 04:52:36;;;;;;;6.50;5.88;;;26.50;79.20;;;;;;5006978;28;20058;-67
2021/08/12 04:55:02;;;;;;;6.90;5.68;;;26.50;79.50;;;;;;5016749;28;20045;-67
2021/08/12 04:57:28;;;;;;;7.38;6.55;;;26.50;79.00;;;;;;5011253;28;20054;-67
2021/08/12 04:59:53;;;;;;;10.25;6.43;;;26.50;79.10;;;;;;5020102;28;20072;-67
2021/08/12 05:02:19;;;;;;;7.55;6.40;;;26.50;79.00;;;;;;5027260;28;20063;-67
2021/08/12 05:04:44;;;;;;;7.13;6.05;;;26.50;79.00;;;;;;5020315;28;20541;-67
2021/08/12 05:07:10;;;;;;;8.77;5.68;;;26.60;77.10;;;;;;5026907;28;20621;-67
2021/08/12 05:09:36;;;;;;;6.60;5.90;;;26.60;77.30;;;;;;5017740;28;20407;-66
2021/08/12 05:12:02;;;;;;;10.23;5.95;;;26.60;76.50;;;;;;5021749;28;20084;-67
2021/08/12 05:14:28;;;;;;;7.35;6.05;;;26.70;76.60;;;;;;5021161;28;20072;-67
2021/08/12 05:16:53;;;;;;;7.60;6.10;;;26.70;76.30;;;;;;5030836;28;20110;-67
2021/08/12 05:19:19;;;;;;;8.30;6.28;;;26.60;76.60;;;;;;5023486;28;20096;-67
2021/08/12 05:21:45;;;;;;;7.85;5.85;;;26.60;76.70;;;;;;5029767;28;20095;-67
2021/08/12 05:24:11;;;;;;;9.32;5.55;;;26.60;77.00;;;;;;5021798;28;20135;-67
2021/08/12 05:26:36;;;;;;;7.57;6.57;;;26.70;77.30;;;;;;5017185;28;20117;-67
2021/08/12 05:29:02;;;;;;;9.82;6.10;;;26.70;77.00;;;;;;5023269;28;20088;-67
2021/08/12 05:31:28;;;;;;;7.22;5.88;;;26.80;77.00;;;;;;5023275;28;20049;-68
2021/08/12 05:33:54;;;;;;;11.00;6.28;;;26.70;75.60;;;;;;5015449;28;20509;-68
2021/08/12 05:36:19;;;;;;;8.82;5.50;;;26.80;75.00;;;;;;5017321;28;20030;-67
2021/08/12 05:38:45;;;;;;;5.90;5.40;;;26.90;74.60;;;;;;5007920;28;20066;-68
2021/08/12 05:41:12;;;;;;;6.68;5.40;;;26.90;75.00;;;;;;5000192;28;20030;-68
2021/08/12 05:43:38;;;;;;;8.73;5.75;;;27.00;74.80;;;;;;5012025;28;20041;-68
2021/08/12 05:46:04;;;;;;;9.00;5.95;;;27.00;74.70;;;;;;5005515;28;20497;-67
2021/08/12 05:48:29;;;;;;;6.60;4.70;;;27.00;74.60;;;;;;5010056;28;20041;-68
2021/08/12 05:50:55;;;;;;;11.15;5.53;;;27.00;73.30;;;;;;5009807;28;20046;-68
2021/08/12 05:53:21;;;;;;;6.43;5.63;;;27.00;72.30;;;;;;5025798;28;20042;-67
2021/08/12 05:55:47;;;;;;;9.55;5.70;;;27.10;72.70;;;;;;4991262;28;20407;-67
2021/08/12 05:58:12;;;;;;;8.75;5.75;;;27.10;72.00;;;;;;5001108;28;20033;-67
2021/08/12 06:00:38;;;;;;;6.15;5.65;;;27.10;70.60;;;;;;5009048;28;20049;-67
2021/08/12 06:03:06;;;;;;;7.20;5.10;;;27.20;70.20;;;;;;5027655;28;20057;-66
2021/08/12 06:05:32;;;;;;;8.80;5.10;;;27.20;69.40;;;;;;5025309;28;20041;-67
2021/08/12 06:07:59;;;;;;;8.00;4.93;;;27.20;69.40;;;;;;5030349;28;20049;-67
2021/08/12 06:10:25;;;;;;;8.25;5.72;;;27.30;68.80;;;;;;5024799;28;20049;-68
2021/08/12 06:12:51;;;;;;;6.60;5.30;;;27.30;69.30;;;;;;5028812;28;20045;-68
2021/08/12 06:15:16;;;;;;;6.80;5.63;;;27.30;69.30;;;;;;5029328;28;20033;-67
2021/08/12 06:17:42;;;;;;;8.30;5.65;;;27.30;69.20;;;;;;5024609;28;20045;-67
2021/08/12 06:20:08;;;;;;;6.00;5.18;;;27.30;68.40;;;;;;5026811;28;20124;-67
2021/08/12 06:22:34;;;;;;;8.30;5.60;;;27.40;68.50;;;;;;5031069;28;20075;-64
2021/08/12 06:24:59;;;;;;;6.35;5.03;;;27.40;68.90;;;;;;5020448;28;20065;-67
2021/08/12 06:27:25;;;;;;;8.75;5.00;;;27.40;68.80;;;;;;5015851;28;20032;-67
2021/08/12 06:29:50;;;;;;;6.25;5.38;;;27.40;68.80;;;;;;5021139;28;20450;-67
2021/08/12 06:32:16;;;;;;;7.75;5.70;;;27.50;68.00;;;;;;5023678;28;20625;-67
2021/08/12 06:34:41;;;;;;;9.43;5.53;;;27.50;67.90;;;;;;5015269;28;20372;-67
2021/08/12 06:37:07;;;;;;;7.00;5.22;;;27.50;67.70;;;;;;5026751;28;20402;-67
2021/08/12 06:39:32;;;;;;;6.38;5.07;;;27.60;67.40;;;;;;5028719;28;20095;-67
2021/08/12 06:41:58;;;;;;;8.38;5.40;;;27.50;66.80;;;;;;5024991;28;20080;-67
2021/08/12 06:44:23;;;;;;;7.60;5.20;;;27.60;66.30;;;;;;5028677;28;20050;-68
2021/08/12 06:46:49;;;;;;;7.22;5.55;;;27.60;66.30;;;;;;5013697;28;20117;-67
2021/08/12 06:49:15;;;;;;;6.70;6.00;;;27.60;66.30;;;;;;5004687;28;20045;-67
2021/08/12 06:51:40;;;;;;;8.52;6.07;;;27.60;65.30;;;;;;5028698;28;20372;-67
2021/08/12 06:54:06;;;;;;;8.90;5.50;;;27.70;65.80;;;;;;5024813;28;20030;-67
2021/08/12 06:56:31;;;;;;;8.75;5.47;;;27.70;65.60;;;;;;5029341;28;20407;-68
2021/08/12 06:58:57;;;;;;;9.27;5.43;;;27.70;65.40;;;;;;5023982;28;20033;-68
2021/08/12 07:01:23;;;;;;;9.50;5.85;;;27.80;65.30;;;;;;5028504;28;20044;-67
2021/08/12 07:03:48;;;;;;;5.80;4.85;;;27.80;65.30;;;;;;5027740;28;20515;-67
2021/08/12 07:06:14;;;;;;;6.85;5.50;;;27.90;66.00;;;;;;5028629;28;20032;-67
2021/08/12 07:08:40;;;;;;;7.93;5.38;;;27.90;64.70;;;;;;5008001;28;20164;-67
2021/08/12 07:11:06;;;;;;;7.47;5.57;;;27.90;65.00;;;;;;4990067;28;20038;-67
2021/08/12 07:13:32;;;;;;;6.43;4.78;;;27.90;65.40;;;;;;5023028;28;20384;-67
2021/08/12 07:15:57;;;;;;;6.68;5.70;;;28.00;64.90;;;;;;5017691;28;20034;-67
2021/08/12 07:18:23;;;;;;;6.43;5.63;;;28.00;65.00;;;;;;4990185;28;20037;-67
2021/08/12 07:20:49;;;;;;;7.05;5.53;;;28.00;65.10;;;;;;5004469;28;20038;-68
2021/08/12 07:23:14;;;;;;;6.18;4.93;;;28.00;64.40;;;;;;5005552;28;20034;-68
2021/08/12 07:25:40;;;;;;;8.65;5.20;;;28.10;65.00;;;;;;5012956;28;20069;-67
2021/08/12 07:28:05;;;;;;;8.32;5.88;;;28.20;65.00;;;;;;5022087;28;20033;-67
2021/08/12 07:30:31;;;;;;;9.93;5.60;;;28.20;64.50;;;;;;5021280;28;20053;-68
2021/08/12 07:32:57;;;;;;;9.95;5.47;;;28.20;64.10;;;;;;5027655;28;20038;-67
2021/08/12 07:35:23;;;;;;;5.95;4.72;;;28.20;64.40;;;;;;5005058;28;20111;-67
2021/08/12 07:37:49;;;;;;;6.88;5.75;;;28.20;63.50;;;;;;5029737;28;20025;-67
2021/08/12 07:40:15;;;;;;;8.88;5.40;;;28.30;63.80;;;;;;5023454;28;20042;-66
2021/08/12 07:42:41;;;;;;;9.60;5.10;;;28.20;63.60;;;;;;5012205;28;20040;-67
2021/08/12 07:45:07;;;;;;;7.38;5.13;;;28.30;64.00;;;;;;5021874;28;20069;-67
2021/08/12 07:47:32;;;;;;;8.35;5.85;;;28.40;63.50;;;;;;5025275;28;20530;-67
2021/08/12 07:49:59;;;;;;;7.68;5.68;;;28.40;63.60;;;;;;5012102;28;20112;-67
2021/08/12 07:52:25;;;;;;;9.38;5.43;;;28.50;63.20;;;;;;5011339;28;20100;-67
2021/08/12 07:54:51;;;;;;;7.35;5.38;;;28.50;63.50;;;;;;5003676;28;20050;-68
2021/08/12 07:57:17;;;;;;;9.00;5.90;;;28.50;62.90;;;;;;5011159;28;20049;-67
2021/08/12 07:59:43;;;;;;;9.05;5.30;;;28.60;62.80;;;;;;5025018;28;20037;-67
2021/08/12 08:02:08;;;;;;;9.13;5.18;;;28.60;62.40;;;;;;5027451;28;20120;-67
2021/08/12 08:04:34;;;;;;;7.43;5.30;;;28.70;61.90;;;;;;5021355;28;20028;-60
2021/08/12 08:07:00;;;;;;;6.28;5.68;;;28.70;61.30;;;;;;5012748;28;20042;-67
2021/08/12 08:09:26;;;;;;;11.18;5.03;;;28.70;61.30;;;;;;5018303;28;20068;-67
2021/08/12 08:11:52;;;;;;;6.35;5.15;;;28.80;61.50;;;;;;5018804;28;20491;-67
2021/08/12 08:14:18;;;;;;;5.88;5.07;;;28.90;61.50;;;;;;5026938;28;20045;-67
2021/08/12 08:16:43;;;;;;;8.05;5.88;;;28.90;61.10;;;;;;5004430;28;20129;-67
2021/08/12 08:19:09;;;;;;;7.32;4.88;;;28.90;60.80;;;;;;5024129;28;20392;-67
2021/08/12 08:21:35;;;;;;;8.98;5.30;;;29.00;60.70;;;;;;5016040;28;20044;-66
2021/08/12 08:24:01;;;;;;;6.47;4.82;;;29.00;60.80;;;;;;5016950;28;20113;-68
2021/08/12 08:26:27;;;;;;;6.78;5.43;;;29.10;60.20;;;;;;5015049;28;20234;-68
2021/08/12 08:28:53;;;;;;;6.90;5.32;;;29.10;59.80;;;;;;5025156;28;20498;-67
2021/08/12 08:31:18;;;;;;;6.10;5.25;;;29.20;59.40;;;;;;5006877;28;20049;-67
2021/08/12 08:33:44;;;;;;;6.68;4.90;;;29.20;59.60;;;;;;5018513;28;20045;-67
2021/08/12 08:36:09;;;;;;;6.47;5.15;;;29.20;59.40;;;;;;5002430;28;20038;-66
2021/08/12 08:38:35;;;;;;;5.47;4.97;;;29.30;58.70;;;;;;5011313;28;20602;-66
2021/08/12 08:41:02;;;;;;;5.90;5.25;;;29.30;58.60;;;;;;5007473;28;20092;-68
2021/08/12 08:43:30;;;;;;;9.50;5.03;;;29.40;58.50;;;;;;5004356;28;20037;-67
2021/08/12 08:45:56;;;;;;;5.75;5.15;;;29.40;58.00;;;;;;5025725;28;20033;-67
2021/08/12 08:48:24;;;;;;;8.00;5.43;;;29.50;57.90;;;;;;5023872;28;20040;-67
2021/08/12 08:50:51;;;;;;;7.22;5.93;;;29.40;58.30;;;;;;5025487;28;20145;-67
2021/08/12 08:53:18;;;;;;;6.45;5.63;;;29.50;57.90;;;;;;5023378;28;20038;-67
2021/08/12 08:55:44;;;;;;;6.90;5.78;;;29.60;57.50;;;;;;5026164;28;20052;-67
2021/08/12 08:58:12;;;;;;;8.48;5.05;;;29.70;57.40;;;;;;5022253;28;20038;-67
2021/08/12 09:00:38;;;;;;;6.70;5.22;;;29.80;57.00;;;;;;5027140;28;20570;-67
2021/08/12 09:03:04;;;;;;;6.00;5.40;;;29.80;56.70;;;;;;5023858;28;20038;-67
2021/08/12 09:05:29;;;;;;;8.32;5.00;;;29.80;57.50;;;;;;5021261;28;20041;-68
2021/08/12 09:07:55;;;;;;;6.40;5.45;;;29.80;57.70;;;;;;5014716;28;20034;-68
2021/08/12 09:10:22;;;;;;;6.45;5.20;;;29.90;58.00;;;;;;5019067;28;20034;-67
2021/08/12 09:12:49;;;;;;;7.90;5.63;;;29.90;57.30;;;;;;5008284;28;20404;-68
2021/08/12 09:15:20;;;;;;;9.63;6.20;;;29.90;57.10;;;;;;5006344;28;20038;-67
2021/08/12 09:17:47;;;;;;;9.10;6.00;;;30.00;57.30;;;;;;5005986;28;20173;-67
2021/08/12 09:20:15;;;;;;;6.70;5.75;;;30.10;57.10;;;;;;5012056;28;20042;-67
2021/08/12 09:22:54;;;;;;;5.80;5.32;;;30.10;56.70;;;;;;5012446;28;20948;-67
2021/08/12 09:25:30;;;;;;;6.40;5.80;;;30.30;56.30;;;;;;5022279;28;20522;-68
2021/08/12 09:28:32;;;;;;;8.05;5.25;;;30.30;55.50;;;;;;5009920;28;20095;-68
2021/08/12 09:30:57;;;;;;;9.40;5.60;;;30.40;55.30;;;;;;4935044;28;20042;-68
2021/08/12 09:33:23;;;;;;;5.68;5.03;;;30.40;55.60;;;;;;4993076;28;20045;-68
2021/08/12 09:35:49;;;;;;;7.50;6.00;;;30.40;55.60;;;;;;5025503;28;20490;-67
2021/08/12 09:38:15;;;;;;;6.47;5.88;;;30.40;55.40;;;;;;5025690;28;20047;-67
2021/08/12 09:40:45;;;;;;;6.88;6.05;;;30.40;56.00;;;;;;5008953;28;20038;-68
2021/08/12 09:43:10;;;;;;;6.85;5.65;;;30.40;54.80;;;;;;5008140;28;20495;-67
2021/08/12 09:45:39;;;;;;;6.20;5.57;;;30.50;55.00;;;;;;5005838;28;20087;-67
2021/08/12 09:48:20;;;;;;;9.25;6.18;;;30.70;54.30;;;;;;5023182;28;20034;-63
2021/08/12 09:50:59;;;;;;;8.43;5.82;;;30.80;53.70;;;;;;5025297;28;20061;-68
2021/08/12 09:53:25;;;;;;;6.72;6.03;;;30.80;54.00;;;;;;5029725;28;20501;-67
2021/08/12 09:55:52;;;;;;;6.70;6.05;;;30.90;53.40;;;;;;5023572;28;20439;-67
2021/08/12 09:58:19;;;;;;;7.20;5.55;;;30.90;53.10;;;;;;5025970;28;20060;-67
2021/08/12 10:00:47;;;;;;;8.27;6.53;;;31.00;52.40;;;;;;5022453;28;20495;-67
2021/08/12 10:03:24;;;;;;;6.85;6.07;;;31.10;52.60;;;;;;5017876;28;20026;-67
2021/08/12 10:05:51;;;;;;;8.85;6.53;;;31.10;52.80;;;;;;5022254;28;20053;-68
2021/08/12 10:08:34;;;;;;;7.05;5.60;;;31.10;52.40;;;;;;5020480;28;20034;-68
2021/08/12 10:11:21;;;;;;;6.25;5.25;;;31.20;51.50;;;;;;5001648;28;20046;-67
2021/08/12 10:13:53;;;;;;;5.75;5.25;;;31.20;52.20;;;;;;4987136;28;20050;-68
2021/08/12 10:16:19;;;;;;;6.93;5.60;;;31.40;51.40;;;;;;5023171;28;20129;-67
2021/08/12 10:18:47;;;;;;;7.13;5.20;;;31.40;51.30;;;;;;5029125;28;20143;-67
2021/08/12 10:21:15;;;;;;;7.18;5.63;;;31.40;50.80;;;;;;5008734;28;20034;-67
2021/08/12 10:23:42;;;;;;;8.23;6.35;;;31.60;50.70;;;;;;5013577;28;20107;-67
2021/08/12 10:26:08;;;;;;;6.53;5.93;;;31.50;50.00;;;;;;5002161;28;20399;-67
2021/08/12 10:28:35;;;;;;;6.97;6.18;;;31.70;50.30;;;;;;5016706;28;20034;-68
2021/08/12 10:31:05;;;;;;;7.30;6.22;;;31.70;50.20;;;;;;5015569;28;20077;-68
2021/08/12 10:33:33;;;;;;;6.28;5.68;;;31.70;49.10;;;;;;5023116;28;20044;-68
2021/08/12 10:36:00;;;;;;;6.72;6.00;;;31.60;49.80;;;;;;5017332;28;20111;-68
2021/08/12 10:38:26;;;;;;;5.68;5.28;;;31.80;49.30;;;;;;5013711;28;20057;-68
2021/08/12 10:40:52;;;;;;;8.30;5.53;;;31.90;49.30;;;;;;5011892;28;21784;-68
2021/08/12 10:43:21;;;;;;;7.20;6.20;;;31.80;48.20;;;;;;5029979;28;20070;-68
2021/08/12 10:46:01;;;;;;;7.68;5.55;;;31.80;48.40;;;;;;5002086;28;20030;-67
2021/08/12 10:48:28;;;;;;;8.10;6.30;;;31.80;47.80;;;;;;5000526;28;20085;-68
2021/08/12 10:51:13;;;;;;;6.50;5.85;;;31.80;48.50;;;;;;5011016;28;20499;-68
2021/08/12 10:53:41;;;;;;;8.32;6.75;;;31.90;48.20;;;;;;5011557;28;20121;-67
2021/08/12 10:56:18;;;;;;;6.72;6.13;;;32.10;47.90;;;;;;5024075;28;20546;-67
2021/08/12 10:58:50;;;;;;;6.00;5.35;;;32.30;47.20;;;;;;5025307;28;20040;-67
2021/08/12 11:01:29;;;;;;;7.25;5.70;;;32.50;47.20;;;;;;5032764;28;20180;-68
2021/08/12 11:03:58;;;;;;;5.40;4.90;;;32.40;45.60;;;;;;5024254;28;22977;-68
2021/08/12 11:06:36;;;;;;;5.90;4.97;;;32.60;45.80;;;;;;5026467;28;20376;-67
2021/08/12 11:09:04;;;;;;;6.90;5.60;;;32.70;43.80;;;;;;5008658;28;20036;-68
2021/08/12 11:11:30;;;;;;;7.03;5.65;;;32.80;44.50;;;;;;5019977;28;20069;-68
2021/08/12 11:13:59;;;;;;;6.50;5.53;;;32.90;44.40;;;;;;5009790;28;20110;-68
2021/08/12 11:16:27;;;;;;;6.30;5.60;;;33.00;43.30;;;;;;5005729;28;20045;-68
2021/08/12 11:18:56;;;;;;;6.10;5.60;;;33.20;43.90;;;;;;5002466;28;20121;-68
2021/08/12 11:21:31;;;;;;;5.75;5.25;;;33.20;43.20;;;;;;5017288;28;20095;-68
2021/08/12 11:24:00;;;;;;;5.82;5.32;;;33.40;42.40;;;;;;5022868;28;20041;-68
2021/08/12 11:26:47;;;;;;;8.52;6.10;;;33.20;42.70;;;;;;5028516;28;20144;-68
2021/08/12 11:29:57;;;;;;;6.25;5.50;;;33.40;42.40;;;;;;4987994;28;20096;-67
2021/08/12 11:32:16;;;;;;;6.65;6.03;;;33.90;42.50;;;;;;4999574;28;20057;-68
2021/08/12 11:34:50;;;;;;;6.47;5.97;;;34.30;41.20;;;;;;5005065;28;20034;-68
2021/08/12 11:37:16;;;;;;;6.90;6.30;;;34.70;39.10;;;;;;5007765;28;20484;-68
2021/08/12 11:39:53;;;;;;;10.70;5.70;;;34.80;39.10;;;;;;5021378;28;20036;-67
2021/08/12 11:42:22;;;;;;;6.38;5.88;;;35.90;37.60;;;;;;5026347;28;20133;-68
2021/08/12 11:44:49;;;;;;;6.43;5.90;;;36.30;36.50;;;;;;5022406;28;20030;-68
2021/08/12 11:47:15;;;;;;;7.38;6.68;;;36.80;35.40;;;;;;5014515;28;20034;-68
2021/08/12 11:49:46;;;;;;;7.03;6.43;;;37.00;35.70;;;;;;5010096;28;20145;-65
2021/08/12 11:52:12;;;;;;;6.43;5.93;;;37.50;34.00;;;;;;5020822;28;20041;-68
2021/08/12 11:54:52;;;;;;;6.75;5.90;;;38.60;31.90;;;;;;5023472;28;20072;-67
2021/08/12 11:57:19;;;;;;;7.07;5.88;;;40.10;29.80;;;;;;5020833;28;20037;-68
2021/08/12 11:59:44;;;;;;;7.15;6.55;;;40.30;29.80;;;;;;5024664;28;20033;-68
2021/08/12 12:02:10;;;;;;;6.75;6.10;;;40.00;29.70;;;;;;5025627;28;20537;-68
2021/08/12 12:04:38;;;;;;;7.93;6.45;;;40.10;29.50;;;;;;5023424;28;20045;-67
2021/08/12 12:07:04;;;;;;;7.68;6.57;;;39.70;29.60;;;;;;5028967;28;20061;-68
2021/08/12 12:09:32;;;;;;;8.80;6.97;;;39.20;30.80;;;;;;5023728;28;20081;-69
2021/08/12 12:12:05;;;;;;;7.13;6.22;;;39.00;30.70;;;;;;5016343;28;20046;-68
2021/08/12 12:14:33;;;;;;;8.18;7.30;;;39.30;29.90;;;;;;5015753;28;20041;-68
2021/08/12 12:17:18;;;;;;;7.72;6.43;;;40.00;29.20;;;;;;5028023;28;20056;-69
2021/08/12 12:20:07;;;;;;;7.65;6.95;;;41.50;28.60;;;;;;4997101;28;20087;-69
2021/08/12 12:22:34;;;;;;;7.88;7.07;;;42.10;27.00;;;;;;5007984;28;20038;-68
2021/08/12 12:25:06;;;;;;;7.78;7.18;;;42.00;27.30;;;;;;5022605;28;20450;-68
2021/08/12 12:27:32;;;;;;;7.10;6.38;;;41.90;26.90;;;;;;5022730;28;20041;-68
2021/08/12 12:30:12;;;;;;;8.02;7.22;;;42.20;30.40;;;;;;5020975;28;20132;-69
2021/08/12 12:32:39;;;;;;;9.13;6.97;;;42.60;25.50;;;;;;5028113;28;20160;-66
2021/08/12 12:35:06;;;;;;;8.15;7.35;;;42.40;25.20;;;;;;5032041;28;20037;-69
2021/08/12 12:37:38;;;;;;;7.72;7.13;;;42.50;25.70;;;;;;5022013;28;20344;-69
2021/08/12 12:40:07;;;;;;;7.90;7.15;;;42.90;25.40;;;;;;5026615;28;20033;-69
2021/08/12 12:42:34;;;;;;;8.68;7.18;;;43.10;25.00;;;;;;5010634;28;20042;-69
2021/08/12 12:45:05;;;;;;;7.53;6.85;;;42.00;25.50;;;;;;5018391;28;20045;-69
2021/08/12 12:47:33;;;;;;;7.65;7.05;;;43.00;24.10;;;;;;5010299;28;20040;-68
2021/08/12 12:50:11;;;;;;;8.00;7.45;;;43.80;24.10;;;;;;5016120;28;20516;-68